CST,Max TemperatureF,Mean TemperatureF,Min TemperatureF,Max Dew PointF,MeanDew PointF,Min DewpointF,Max Humidity, Mean Humidity, Min Humidity, Max Sea Level PressureIn, Mean Sea Level PressureIn, Min Sea Level PressureIn, Max VisibilityMiles, Mean VisibilityMiles, Min VisibilityMiles, Max Wind SpeedMPH, Mean Wind SpeedMPH, Max Gust SpeedMPH,PrecipitationIn, CloudCover, Events, WindDirDegrees
2013-2-1,26,15,3,16,3,-6,77,63,49,30.49,30.35,30.19,10,9,3,23,11,29,T,4,Snow,240
2013-2-2,32,28,23,21,17,13,88,69,50,30.17,30.11,30.04,10,9,2,21,12,25,0.01,6,Snow,298
2013-2-3,34,29,24,25,18,13,88,68,47,30.21,30.08,29.97,10,10,6,28,12,36,0.00,4,,268
2013-2-4,42,34,26,27,21,15,75,63,51,30.00,29.91,29.80,10,10,8,20,10,24,0.00,4,,336
2013-2-5,47,37,26,31,25,20,85,69,53,30.13,29.97,29.89,10,9,4,21,9,26,0.00,4,,252
2013-2-6,50,38,25,31,28,24,100,73,46,30.21,30.12,30.01,10,9,5,16,8,20,0.00,1,,159
2013-2-7,44,39,33,39,35,30,100,81,62,30.11,29.95,29.86,10,4,2,24,11,30,0.35,8,Rain,251
2013-2-8,34,32,29,29,26,24,92,81,69,30.38,30.31,30.12,10,9,4,20,9,25,0.00,8,,13
2013-2-9,39,33,27,32,26,23,85,75,64,30.36,30.21,29.99,10,10,5,17,12,24,0.05,5,Rain,148
2013-2-10,59,48,36,49,38,28,93,68,43,29.95,29.68,29.44,10,7,3,35,19,47,0.25,7,Rain,172
2013-2-11,44,36,28,26,24,20,78,64,49,30.16,29.99,29.74,10,10,10,33,17,46,0.00,3,,283
2013-2-12,40,32,24,26,24,21,88,71,54,30.17,30.08,29.96,10,9,5,9,3,10,0.00,0,,238
2013-2-13,47,36,25,31,27,22,85,67,49,29.94,29.84,29.78,10,10,7,17,8,24,0.00,0,,233
2013-2-14,48,41,33,31,29,25,82,67,51,30.09,29.92,29.77,10,10,10,24,12,31,0.00,2,,286
2013-2-15,36,29,21,27,16,11,85,62,38,30.31,30.23,30.10,10,10,10,21,13,25,0.00,3,,325
2013-2-16,33,24,15,15,12,8,73,58,43,30.30,30.23,30.17,10,10,10,17,7,24,0.00,0,,313
2013-2-17,43,32,20,29,19,14,77,58,39,30.18,30.05,29.83,10,10,10,18,12,25,0.00,2,,134
2013-2-18,55,41,26,47,32,16,92,74,56,29.89,29.68,29.46,10,8,2,33,17,44,0.49,6,Rain-Snow-Thunderstorm,257
2013-2-19,26,22,18,16,11,8,68,59,50,30.32,30.11,29.90,10,10,10,30,18,40,0.00,4,,293
2013-2-20,21,14,7,12,7,1,80,68,56,30.47,30.38,30.32,10,10,10,17,8,21,0.00,1,,29
2013-2-21,29,23,16,27,20,11,92,83,73,30.35,30.01,29.81,10,3,0,24,14,46,0.28,6,Fog-Rain-Snow-Thunderstorm,98
2013-2-22,31,27,22,29,23,15,92,80,68,30.04,29.91,29.78,10,8,2,21,11,29,T,8,Snow,236
2013-2-23,28,18,8,17,13,8,92,78,63,30.06,30.03,30.01,10,9,3,9,6,13,0.00,0,,233
2013-2-24,38,25,11,23,18,9,92,72,52,30.13,30.09,30.04,10,9,5,12,6,15,0.00,0,,139
2013-2-25,40,31,22,30,25,18,88,74,59,30.10,29.98,29.78,10,8,5,29,11,36,0.00,2,,68
2013-2-26,37,34,31,32,30,27,96,80,64,29.72,29.53,29.45,10,3,0,30,17,36,0.14,8,Fog-Snow,35
2013-2-27,33,32,30,29,28,26,92,89,85,29.90,29.76,29.67,7,2,1,20,14,24,0.01,8,Rain-Snow,297
2013-2-28,32,30,28,28,27,25,92,85,78,30.13,30.05,29.91,9,5,1,18,13,23,T,8,Snow,311